sensor_id;sensor_type;location;lat;lon;timestamp;P1;durP1;ratioP1;P2;durP2;ratioP2
21122;SDS011;10719;48.130;11.630;2023-06-19T00:01:12;13.25;;;6.65;;
21122;SDS011;10719;48.130;11.630;2023-06-19T00:03:38;13.80;;;6.55;;
21122;SDS011;10719;48.130;11.630;2023-06-19T00:06:05;15.57;;;6.25;;
21122;SDS011;10719;48.130;11.630;2023-06-19T00:08:30;15.43;;;6.47;;
21122;SDS011;10719;48.130;11.630;2023-06-19T00:10:56;13.98;;;6.43;;
21122;SDS011;10719;48.130;11.630;2023-06-19T00:13:22;19.83;;;6.90;;
21122;SDS011;10719;48.130;11.630;2023-06-19T00:15:47;14.82;;;6.57;;
21122;SDS011;10719;48.130;11.630;2023-06-19T00:18:13;14.32;;;6.70;;
21122;SDS011;10719;48.130;11.630;2023-06-19T00:20:41;14.43;;;6.13;;
21122;SDS011;10719;48.130;11.630;2023-06-19T00:23:11;16.50;;;6.85;;
21122;SDS011;10719;48.130;11.630;2023-06-19T00:25:39;13.70;;;6.38;;
21122;SDS011;10719;48.130;11.630;2023-06-19T00:28:05;13.75;;;6.28;;
21122;SDS011;10719;48.130;11.630;2023-06-19T00:30:36;15.07;;;6.40;;
21122;SDS011;10719;48.130;11.630;2023-06-19T00:33:02;13.20;;;6.47;;
21122;SDS011;10719;48.130;11.630;2023-06-19T00:35:29;15.57;;;6.00;;
21122;SDS011;10719;48.130;11.630;2023-06-19T00:37:55;14.73;;;6.53;;
21122;SDS011;10719;48.130;11.630;2023-06-19T00:40:30;14.32;;;6.35;;
21122;SDS011;10719;48.130;11.630;2023-06-19T00:42:57;12.57;;;5.80;;
21122;SDS011;10719;48.130;11.630;2023-06-19T00:45:24;13.35;;;6.07;;
21122;SDS011;10719;48.130;11.630;2023-06-19T00:47:50;13.32;;;6.50;;
21122;SDS011;10719;48.130;11.630;2023-06-19T00:50:20;12.82;;;6.18;;
21122;SDS011;10719;48.130;11.630;2023-06-19T00:52:49;16.40;;;7.32;;
21122;SDS011;10719;48.130;11.630;2023-06-19T00:55:15;12.95;;;6.10;;
21122;SDS011;10719;48.130;11.630;2023-06-19T00:57:41;16.10;;;6.05;;
21122;SDS011;10719;48.130;11.630;2023-06-19T01:00:08;13.98;;;6.38;;
21122;SDS011;10719;48.130;11.630;2023-06-19T01:02:37;15.88;;;6.15;;
21122;SDS011;10719;48.130;11.630;2023-06-19T01:05:03;13.82;;;5.65;;
21122;SDS011;10719;48.130;11.630;2023-06-19T01:10:07;15.45;;;6.38;;
21122;SDS011;10719;48.130;11.630;2023-06-19T01:12:59;16.85;;;5.88;;
21122;SDS011;10719;48.130;11.630;2023-06-19T01:15:46;12.50;;;6.07;;
21122;SDS011;10719;48.130;11.630;2023-06-19T01:18:12;13.20;;;6.32;;
21122;SDS011;10719;48.130;11.630;2023-06-19T01:20:38;16.13;;;6.22;;
21122;SDS011;10719;48.130;11.630;2023-06-19T01:23:07;17.50;;;6.55;;
21122;SDS011;10719;48.130;11.630;2023-06-19T01:25:34;15.25;;;6.60;;
21122;SDS011;10719;48.130;11.630;2023-06-19T01:28:00;16.08;;;6.28;;
21122;SDS011;10719;48.130;11.630;2023-06-19T01:30:29;14.63;;;6.18;;
21122;SDS011;10719;48.130;11.630;2023-06-19T01:35:48;13.35;;;6.65;;
21122;SDS011;10719;48.130;11.630;2023-06-19T01:38:14;14.38;;;6.65;;
21122;SDS011;10719;48.130;11.630;2023-06-19T01:40:42;13.32;;;6.20;;
21122;SDS011;10719;48.130;11.630;2023-06-19T01:43:08;14.23;;;6.95;;
21122;SDS011;10719;48.130;11.630;2023-06-19T01:45:35;13.77;;;6.40;;
21122;SDS011;10719;48.130;11.630;2023-06-19T01:48:00;15.07;;;7.40;;
21122;SDS011;10719;48.130;11.630;2023-06-19T01:50:26;14.00;;;6.47;;
21122;SDS011;10719;48.130;11.630;2023-06-19T01:52:52;14.15;;;6.15;;
21122;SDS011;10719;48.130;11.630;2023-06-19T01:55:18;13.05;;;6.47;;
21122;SDS011;10719;48.130;11.630;2023-06-19T01:57:43;13.85;;;6.57;;
21122;SDS011;10719;48.130;11.630;2023-06-19T02:00:11;13.95;;;6.40;;
21122;SDS011;10719;48.130;11.630;2023-06-19T02:02:37;14.25;;;6.15;;
21122;SDS011;10719;48.130;11.630;2023-06-19T02:05:02;16.08;;;6.47;;
21122;SDS011;10719;48.130;11.630;2023-06-19T02:07:29;11.60;;;5.72;;
21122;SDS011;10719;48.130;11.630;2023-06-19T02:09:55;12.07;;;6.22;;
21122;SDS011;10719;48.130;11.630;2023-06-19T02:12:21;15.13;;;6.32;;
21122;SDS011;10719;48.130;11.630;2023-06-19T02:14:47;12.57;;;6.30;;
21122;SDS011;10719;48.130;11.630;2023-06-19T02:17:12;11.82;;;5.68;;
21122;SDS011;10719;48.130;11.630;2023-06-19T02:19:38;13.90;;;6.18;;
21122;SDS011;10719;48.130;11.630;2023-06-19T02:22:03;12.20;;;5.70;;
21122;SDS011;10719;48.130;11.630;2023-06-19T02:24:29;12.40;;;6.35;;
21122;SDS011;10719;48.130;11.630;2023-06-19T02:26:55;16.52;;;7.40;;
21122;SDS011;10719;48.130;11.630;2023-06-19T02:29:20;15.05;;;6.20;;
21122;SDS011;10719;48.130;11.630;2023-06-19T02:31:46;15.73;;;6.63;;
21122;SDS011;10719;48.130;11.630;2023-06-19T02:34:12;13.75;;;5.88;;
21122;SDS011;10719;48.130;11.630;2023-06-19T02:36:38;13.48;;;6.00;;
21122;SDS011;10719;48.130;11.630;2023-06-19T02:39:04;13.40;;;6.57;;
21122;SDS011;10719;48.130;11.630;2023-06-19T02:41:31;13.63;;;6.35;;
21122;SDS011;10719;48.130;11.630;2023-06-19T02:43:57;12.80;;;6.32;;
21122;SDS011;10719;48.130;11.630;2023-06-19T02:46:22;14.23;;;6.65;;
21122;SDS011;10719;48.130;11.630;2023-06-19T02:48:48;13.02;;;6.07;;
21122;SDS011;10719;48.130;11.630;2023-06-19T02:51:13;14.20;;;6.47;;
21122;SDS011;10719;48.130;11.630;2023-06-19T02:53:39;15.10;;;6.38;;
21122;SDS011;10719;48.130;11.630;2023-06-19T02:56:06;13.30;;;5.97;;
21122;SDS011;10719;48.130;11.630;2023-06-19T02:58:32;18.45;;;6.15;;
21122;SDS011;10719;48.130;11.630;2023-06-19T03:00:59;17.60;;;6.32;;
21122;SDS011;10719;48.130;11.630;2023-06-19T03:03:25;14.52;;;6.45;;
21122;SDS011;10719;48.130;11.630;2023-06-19T03:05:50;13.52;;;6.38;;
21122;SDS011;10719;48.130;11.630;2023-06-19T03:08:16;14.48;;;6.80;;
21122;SDS011;10719;48.130;11.630;2023-06-19T03:10:42;13.02;;;6.40;;
21122;SDS011;10719;48.130;11.630;2023-06-19T03:13:08;15.35;;;6.93;;
21122;SDS011;10719;48.130;11.630;2023-06-19T03:15:33;14.23;;;6.65;;
21122;SDS011;10719;48.130;11.630;2023-06-19T03:17:59;17.85;;;7.63;;
21122;SDS011;10719;48.130;11.630;2023-06-19T03:20:28;14.65;;;7.07;;
21122;SDS011;10719;48.130;11.630;2023-06-19T03:22:53;13.48;;;6.03;;
21122;SDS011;10719;48.130;11.630;2023-06-19T03:25:19;12.25;;;6.18;;
21122;SDS011;10719;48.130;11.630;2023-06-19T03:27:45;13.80;;;6.15;;
21122;SDS011;10719;48.130;11.630;2023-06-19T03:30:11;16.50;;;6.05;;
21122;SDS011;10719;48.130;11.630;2023-06-19T03:32:37;14.95;;;7.43;;
21122;SDS011;10719;48.130;11.630;2023-06-19T03:35:03;14.88;;;6.05;;
21122;SDS011;10719;48.130;11.630;2023-06-19T03:37:30;16.80;;;7.00;;
21122;SDS011;10719;48.130;11.630;2023-06-19T03:39:57;12.88;;;6.07;;
21122;SDS011;10719;48.130;11.630;2023-06-19T03:42:23;14.98;;;6.45;;
21122;SDS011;10719;48.130;11.630;2023-06-19T03:44:48;13.75;;;6.32;;
21122;SDS011;10719;48.130;11.630;2023-06-19T03:47:14;14.27;;;5.97;;
21122;SDS011;10719;48.130;11.630;2023-06-19T03:49:41;15.68;;;6.63;;
21122;SDS011;10719;48.130;11.630;2023-06-19T03:52:07;13.27;;;6.25;;
21122;SDS011;10719;48.130;11.630;2023-06-19T03:54:33;13.52;;;6.13;;
21122;SDS011;10719;48.130;11.630;2023-06-19T03:56:58;11.38;;;6.20;;
21122;SDS011;10719;48.130;11.630;2023-06-19T03:59:24;16.02;;;6.18;;
21122;SDS011;10719;48.130;11.630;2023-06-19T04:01:49;12.48;;;5.78;;
21122;SDS011;10719;48.130;11.630;2023-06-19T04:04:15;13.48;;;5.60;;
21122;SDS011;10719;48.130;11.630;2023-06-19T04:06:40;15.27;;;6.43;;
21122;SDS011;10719;48.130;11.630;2023-06-19T04:09:06;16.75;;;6.45;;
21122;SDS011;10719;48.130;11.630;2023-06-19T04:11:32;13.73;;;6.43;;
21122;SDS011;10719;48.130;11.630;2023-06-19T04:13:57;12.80;;;6.07;;
21122;SDS011;10719;48.130;11.630;2023-06-19T04:16:23;13.27;;;6.00;;
21122;SDS011;10719;48.130;11.630;2023-06-19T04:18:48;16.60;;;5.93;;
21122;SDS011;10719;48.130;11.630;2023-06-19T04:21:14;14.57;;;6.07;;
21122;SDS011;10719;48.130;11.630;2023-06-19T04:23:40;16.98;;;6.15;;
21122;SDS011;10719;48.130;11.630;2023-06-19T04:26:05;14.57;;;6.18;;
21122;SDS011;10719;48.130;11.630;2023-06-19T04:28:31;14.30;;;6.22;;
21122;SDS011;10719;48.130;11.630;2023-06-19T04:30:56;15.45;;;6.03;;
21122;SDS011;10719;48.130;11.630;2023-06-19T04:33:26;13.15;;;5.90;;
21122;SDS011;10719;48.130;11.630;2023-06-19T04:35:55;13.30;;;6.03;;
21122;SDS011;10719;48.130;11.630;2023-06-19T04:38:21;14.98;;;6.22;;
21122;SDS011;10719;48.130;11.630;2023-06-19T04:40:52;14.38;;;6.43;;
21122;SDS011;10719;48.130;11.630;2023-06-19T04:43:18;13.85;;;6.38;;
21122;SDS011;10719;48.130;11.630;2023-06-19T04:45:44;14.77;;;7.00;;
21122;SDS011;10719;48.130;11.630;2023-06-19T04:48:10;14.57;;;6.75;;
21122;SDS011;10719;48.130;11.630;2023-06-19T04:50:36;12.23;;;6.18;;
21122;SDS011;10719;48.130;11.630;2023-06-19T04:53:02;14.93;;;6.90;;
21122;SDS011;10719;48.130;11.630;2023-06-19T04:55:27;13.10;;;6.10;;
21122;SDS011;10719;48.130;11.630;2023-06-19T04:57:53;13.98;;;5.82;;
21122;SDS011;10719;48.130;11.630;2023-06-19T05:00:19;14.50;;;7.07;;
21122;SDS011;10719;48.130;11.630;2023-06-19T05:02:45;15.38;;;7.35;;
21122;SDS011;10719;48.130;11.630;2023-06-19T05:05:12;14.55;;;6.50;;
21122;SDS011;10719;48.130;11.630;2023-06-19T05:07:39;16.73;;;6.72;;
21122;SDS011;10719;48.130;11.630;2023-06-19T05:10:04;13.00;;;6.40;;
21122;SDS011;10719;48.130;11.630;2023-06-19T05:12:31;13.20;;;6.65;;
21122;SDS011;10719;48.130;11.630;2023-06-19T05:14:57;15.95;;;7.28;;
21122;SDS011;10719;48.130;11.630;2023-06-19T05:17:22;14.43;;;6.82;;
21122;SDS011;10719;48.130;11.630;2023-06-19T05:19:48;14.63;;;6.63;;
21122;SDS011;10719;48.130;11.630;2023-06-19T05:22:14;12.55;;;6.28;;
21122;SDS011;10719;48.130;11.630;2023-06-19T05:24:40;15.30;;;6.50;;
21122;SDS011;10719;48.130;11.630;2023-06-19T05:27:05;13.05;;;6.35;;
21122;SDS011;10719;48.130;11.630;2023-06-19T05:29:31;13.95;;;7.22;;
21122;SDS011;10719;48.130;11.630;2023-06-19T05:31:57;13.90;;;6.38;;
21122;SDS011;10719;48.130;11.630;2023-06-19T05:34:23;17.52;;;7.35;;
21122;SDS011;10719;48.130;11.630;2023-06-19T05:36:48;16.38;;;7.38;;
21122;SDS011;10719;48.130;11.630;2023-06-19T05:39:14;15.63;;;6.13;;
21122;SDS011;10719;48.130;11.630;2023-06-19T05:41:39;15.52;;;6.53;;
21122;SDS011;10719;48.130;11.630;2023-06-19T05:44:06;14.43;;;6.70;;
21122;SDS011;10719;48.130;11.630;2023-06-19T05:46:32;18.27;;;6.43;;
21122;SDS011;10719;48.130;11.630;2023-06-19T05:48:57;14.45;;;5.60;;
21122;SDS011;10719;48.130;11.630;2023-06-19T05:51:23;20.35;;;6.15;;
21122;SDS011;10719;48.130;11.630;2023-06-19T05:53:48;16.33;;;6.43;;
21122;SDS011;10719;48.130;11.630;2023-06-19T05:56:14;14.88;;;6.68;;
21122;SDS011;10719;48.130;11.630;2023-06-19T05:58:40;14.80;;;6.72;;
21122;SDS011;10719;48.130;11.630;2023-06-19T06:01:06;12.23;;;5.82;;
21122;SDS011;10719;48.130;11.630;2023-06-19T06:03:32;13.18;;;6.05;;
21122;SDS011;10719;48.130;11.630;2023-06-19T06:05:58;15.35;;;5.78;;
21122;SDS011;10719;48.130;11.630;2023-06-19T06:08:30;13.63;;;6.30;;
21122;SDS011;10719;48.130;11.630;2023-06-19T06:10:57;32.42;;;6.75;;
21122;SDS011;10719;48.130;11.630;2023-06-19T06:13:23;14.18;;;6.40;;
21122;SDS011;10719;48.130;11.630;2023-06-19T06:15:49;15.55;;;5.82;;
21122;SDS011;10719;48.130;11.630;2023-06-19T06:18:15;12.02;;;5.82;;
21122;SDS011;10719;48.130;11.630;2023-06-19T06:20:41;20.25;;;6.57;;
21122;SDS011;10719;48.130;11.630;2023-06-19T06:23:06;13.13;;;6.15;;
21122;SDS011;10719;48.130;11.630;2023-06-19T06:25:32;15.45;;;6.88;;
21122;SDS011;10719;48.130;11.630;2023-06-19T06:27:58;13.85;;;5.90;;
21122;SDS011;10719;48.130;11.630;2023-06-19T06:30:23;16.92;;;6.40;;
21122;SDS011;10719;48.130;11.630;2023-06-19T06:32:49;13.75;;;6.20;;
21122;SDS011;10719;48.130;11.630;2023-06-19T06:35:16;13.45;;;5.90;;
21122;SDS011;10719;48.130;11.630;2023-06-19T06:37:41;15.85;;;6.20;;
21122;SDS011;10719;48.130;11.630;2023-06-19T06:40:09;18.05;;;7.18;;
21122;SDS011;10719;48.130;11.630;2023-06-19T06:42:35;14.65;;;5.80;;
21122;SDS011;10719;48.130;11.630;2023-06-19T06:45:01;16.00;;;5.60;;
21122;SDS011;10719;48.130;11.630;2023-06-19T06:47:28;17.92;;;6.00;;
21122;SDS011;10719;48.130;11.630;2023-06-19T06:49:53;17.40;;;6.57;;
21122;SDS011;10719;48.130;11.630;2023-06-19T06:52:19;15.60;;;7.07;;
21122;SDS011;10719;48.130;11.630;2023-06-19T06:54:44;11.40;;;5.55;;
21122;SDS011;10719;48.130;11.630;2023-06-19T06:57:10;16.30;;;5.10;;
21122;SDS011;10719;48.130;11.630;2023-06-19T06:59:35;11.38;;;5.13;;
21122;SDS011;10719;48.130;11.630;2023-06-19T07:02:01;12.80;;;6.00;;
21122;SDS011;10719;48.130;11.630;2023-06-19T07:04:27;11.48;;;5.05;;
21122;SDS011;10719;48.130;11.630;2023-06-19T07:06:52;12.57;;;5.25;;
21122;SDS011;10719;48.130;11.630;2023-06-19T07:09:18;11.65;;;4.95;;
21122;SDS011;10719;48.130;11.630;2023-06-19T07:11:46;21.50;;;6.60;;
21122;SDS011;10719;48.130;11.630;2023-06-19T07:14:11;10.75;;;4.95;;
21122;SDS011;10719;48.130;11.630;2023-06-19T07:16:37;12.75;;;5.00;;
21122;SDS011;10719;48.130;11.630;2023-06-19T07:19:03;11.27;;;5.13;;
21122;SDS011;10719;48.130;11.630;2023-06-19T07:21:28;13.88;;;4.80;;
21122;SDS011;10719;48.130;11.630;2023-06-19T07:23:55;10.20;;;4.32;;
21122;SDS011;10719;48.130;11.630;2023-06-19T07:26:22;12.25;;;4.68;;
21122;SDS011;10719;48.130;11.630;2023-06-19T07:28:48;14.40;;;4.38;;
21122;SDS011;10719;48.130;11.630;2023-06-19T07:31:13;9.85;;;4.38;;
21122;SDS011;10719;48.130;11.630;2023-06-19T07:33:39;8.88;;;3.90;;
21122;SDS011;10719;48.130;11.630;2023-06-19T07:36:04;10.50;;;4.25;;
21122;SDS011;10719;48.130;11.630;2023-06-19T07:38:30;10.75;;;4.80;;
21122;SDS011;10719;48.130;11.630;2023-06-19T07:40:56;12.05;;;5.00;;
21122;SDS011;10719;48.130;11.630;2023-06-19T07:43:21;10.02;;;4.20;;
21122;SDS011;10719;48.130;11.630;2023-06-19T07:45:50;10.32;;;4.22;;
21122;SDS011;10719;48.130;11.630;2023-06-19T07:48:15;6.78;;;3.08;;
21122;SDS011;10719;48.130;11.630;2023-06-19T07:50:41;9.25;;;3.65;;
21122;SDS011;10719;48.130;11.630;2023-06-19T07:53:07;9.85;;;4.28;;
21122;SDS011;10719;48.130;11.630;2023-06-19T07:55:32;11.73;;;3.80;;
21122;SDS011;10719;48.130;11.630;2023-06-19T07:58:00;7.22;;;3.60;;
21122;SDS011;10719;48.130;11.630;2023-06-19T08:00:25;7.57;;;3.20;;
21122;SDS011;10719;48.130;11.630;2023-06-19T08:02:51;8.20;;;3.25;;
21122;SDS011;10719;48.130;11.630;2023-06-19T08:05:17;7.22;;;3.22;;
21122;SDS011;10719;48.130;11.630;2023-06-19T08:07:42;11.35;;;3.95;;
21122;SDS011;10719;48.130;11.630;2023-06-19T08:10:08;9.02;;;3.92;;
21122;SDS011;10719;48.130;11.630;2023-06-19T08:12:34;11.90;;;3.22;;
21122;SDS011;10719;48.130;11.630;2023-06-19T08:14:59;8.80;;;3.40;;
21122;SDS011;10719;48.130;11.630;2023-06-19T08:17:25;9.85;;;3.22;;
21122;SDS011;10719;48.130;11.630;2023-06-19T08:19:51;7.78;;;3.47;;
21122;SDS011;10719;48.130;11.630;2023-06-19T08:22:16;9.23;;;3.50;;
21122;SDS011;10719;48.130;11.630;2023-06-19T08:24:42;9.95;;;3.55;;
21122;SDS011;10719;48.130;11.630;2023-06-19T08:27:08;8.55;;;3.47;;
21122;SDS011;10719;48.130;11.630;2023-06-19T08:29:33;6.20;;;2.83;;
21122;SDS011;10719;48.130;11.630;2023-06-19T08:31:59;6.80;;;3.38;;
21122;SDS011;10719;48.130;11.630;2023-06-19T08:34:24;9.40;;;2.97;;
21122;SDS011;10719;48.130;11.630;2023-06-19T08:36:50;8.55;;;3.60;;
21122;SDS011;10719;48.130;11.630;2023-06-19T08:39:16;8.32;;;2.97;;
21122;SDS011;10719;48.130;11.630;2023-06-19T08:41:42;11.07;;;3.92;;
21122;SDS011;10719;48.130;11.630;2023-06-19T08:44:08;7.30;;;3.13;;
21122;SDS011;10719;48.130;11.630;2023-06-19T08:46:34;5.88;;;2.70;;
21122;SDS011;10719;48.130;11.630;2023-06-19T08:49:02;9.13;;;2.85;;
21122;SDS011;10719;48.130;11.630;2023-06-19T08:51:28;9.90;;;3.78;;
21122;SDS011;10719;48.130;11.630;2023-06-19T08:53:59;7.00;;;3.00;;
21122;SDS011;10719;48.130;11.630;2023-06-19T08:56:26;7.20;;;2.90;;
21122;SDS011;10719;48.130;11.630;2023-06-19T08:58:53;6.80;;;3.00;;
21122;SDS011;10719;48.130;11.630;2023-06-19T09:01:19;9.43;;;3.58;;
21122;SDS011;10719;48.130;11.630;2023-06-19T09:03:45;7.53;;;3.13;;
21122;SDS011;10719;48.130;11.630;2023-06-19T09:06:14;7.60;;;3.30;;
21122;SDS011;10719;48.130;11.630;2023-06-19T09:08:41;7.18;;;3.20;;
21122;SDS011;10719;48.130;11.630;2023-06-19T09:11:06;7.30;;;3.10;;
21122;SDS011;10719;48.130;11.630;2023-06-19T09:13:32;4.72;;;2.72;;
21122;SDS011;10719;48.130;11.630;2023-06-19T09:16:05;5.75;;;2.33;;
21122;SDS011;10719;48.130;11.630;2023-06-19T09:18:41;5.10;;;2.40;;
21122;SDS011;10719;48.130;11.630;2023-06-19T09:21:17;3.92;;;1.63;;
21122;SDS011;10719;48.130;11.630;2023-06-19T09:23:44;2.72;;;1.40;;
21122;SDS011;10719;48.130;11.630;2023-06-19T09:26:10;3.20;;;1.60;;
21122;SDS011;10719;48.130;11.630;2023-06-19T09:28:40;2.70;;;1.42;;
21122;SDS011;10719;48.130;11.630;2023-06-19T09:31:07;4.53;;;1.85;;
21122;SDS011;10719;48.130;11.630;2023-06-19T09:33:34;6.90;;;2.38;;
21122;SDS011;10719;48.130;11.630;2023-06-19T09:36:00;7.53;;;2.67;;
21122;SDS011;10719;48.130;11.630;2023-06-19T09:38:27;5.20;;;2.20;;
21122;SDS011;10719;48.130;11.630;2023-06-19T09:40:55;4.22;;;1.98;;
21122;SDS011;10719;48.130;11.630;2023-06-19T09:43:24;5.88;;;2.22;;
21122;SDS011;10719;48.130;11.630;2023-06-19T09:45:57;10.45;;;2.20;;
21122;SDS011;10719;48.130;11.630;2023-06-19T09:48:27;4.82;;;2.35;;
21122;SDS011;10719;48.130;11.630;2023-06-19T09:50:55;5.28;;;2.30;;
21122;SDS011;10719;48.130;11.630;2023-06-19T09:53:46;3.22;;;1.83;;
21122;SDS011;10719;48.130;11.630;2023-06-19T09:56:13;7.13;;;2.83;;
21122;SDS011;10719;48.130;11.630;2023-06-19T09:58:42;7.38;;;2.80;;
21122;SDS011;10719;48.130;11.630;2023-06-19T10:01:08;5.93;;;2.65;;
21122;SDS011;10719;48.130;11.630;2023-06-19T10:03:34;4.65;;;2.42;;
21122;SDS011;10719;48.130;11.630;2023-06-19T10:06:01;5.03;;;2.60;;
21122;SDS011;10719;48.130;11.630;2023-06-19T10:08:31;7.10;;;3.08;;
21122;SDS011;10719;48.130;11.630;2023-06-19T10:11:03;6.85;;;2.67;;
21122;SDS011;10719;48.130;11.630;2023-06-19T10:13:33;6.40;;;3.00;;
21122;SDS011;10719;48.130;11.630;2023-06-19T10:16:00;7.85;;;2.92;;
21122;SDS011;10719;48.130;11.630;2023-06-19T10:18:26;8.52;;;3.42;;
21122;SDS011;10719;48.130;11.630;2023-06-19T10:20:53;4.63;;;2.78;;
21122;SDS011;10719;48.130;11.630;2023-06-19T10:23:21;6.03;;;3.17;;
21122;SDS011;10719;48.130;11.630;2023-06-19T10:25:58;10.05;;;3.97;;
21122;SDS011;10719;48.130;11.630;2023-06-19T10:28:33;6.63;;;3.33;;
21122;SDS011;10719;48.130;11.630;2023-06-19T10:31:03;8.27;;;3.35;;
21122;SDS011;10719;48.130;11.630;2023-06-19T10:33:34;6.50;;;3.17;;
21122;SDS011;10719;48.130;11.630;2023-06-19T10:36:13;7.60;;;3.53;;
21122;SDS011;10719;48.130;11.630;2023-06-19T10:38:38;7.28;;;3.53;;
21122;SDS011;10719;48.130;11.630;2023-06-19T10:41:04;9.02;;;3.22;;
21122;SDS011;10719;48.130;11.630;2023-06-19T10:43:30;7.15;;;3.30;;
21122;SDS011;10719;48.130;11.630;2023-06-19T10:45:57;10.32;;;4.22;;
21122;SDS011;10719;48.130;11.630;2023-06-19T10:48:24;10.25;;;4.05;;
21122;SDS011;10719;48.130;11.630;2023-06-19T10:50:50;11.63;;;4.50;;
21122;SDS011;10719;48.130;11.630;2023-06-19T10:53:22;7.22;;;3.42;;
21122;SDS011;10719;48.130;11.630;2023-06-19T10:56:00;7.15;;;3.40;;
21122;SDS011;10719;48.130;11.630;2023-06-19T10:58:27;8.63;;;3.75;;
21122;SDS011;10719;48.130;11.630;2023-06-19T11:00:53;7.55;;;3.47;;
21122;SDS011;10719;48.130;11.630;2023-06-19T11:03:19;7.07;;;3.45;;
21122;SDS011;10719;48.130;11.630;2023-06-19T11:05:45;6.13;;;3.00;;
21122;SDS011;10719;48.130;11.630;2023-06-19T11:08:16;8.93;;;3.53;;
21122;SDS011;10719;48.130;11.630;2023-06-19T11:10:43;11.02;;;3.30;;
21122;SDS011;10719;48.130;11.630;2023-06-19T11:13:12;8.70;;;3.63;;
21122;SDS011;10719;48.130;11.630;2023-06-19T11:15:40;8.15;;;3.40;;
21122;SDS011;10719;48.130;11.630;2023-06-19T11:18:05;9.05;;;4.07;;
21122;SDS011;10719;48.130;11.630;2023-06-19T11:20:31;9.65;;;3.72;;
21122;SDS011;10719;48.130;11.630;2023-06-19T11:23:16;7.70;;;3.45;;
21122;SDS011;10719;48.130;11.630;2023-06-19T11:25:42;7.18;;;2.88;;
21122;SDS011;10719;48.130;11.630;2023-06-19T11:28:12;6.38;;;2.10;;
21122;SDS011;10719;48.130;11.630;2023-06-19T11:30:38;7.18;;;3.03;;
21122;SDS011;10719;48.130;11.630;2023-06-19T11:36:00;6.80;;;2.47;;
21122;SDS011;10719;48.130;11.630;2023-06-19T11:38:27;7.68;;;2.83;;
21122;SDS011;10719;48.130;11.630;2023-06-19T11:40:56;5.78;;;2.78;;
21122;SDS011;10719;48.130;11.630;2023-06-19T11:46:02;7.88;;;2.78;;
21122;SDS011;10719;48.130;11.630;2023-06-19T11:48:28;8.52;;;2.92;;
21122;SDS011;10719;48.130;11.630;2023-06-19T11:50:54;8.45;;;3.10;;
21122;SDS011;10719;48.130;11.630;2023-06-19T11:53:20;6.72;;;2.97;;
21122;SDS011;10719;48.130;11.630;2023-06-19T11:55:47;7.78;;;2.65;;
21122;SDS011;10719;48.130;11.630;2023-06-19T11:58:13;6.75;;;2.72;;
21122;SDS011;10719;48.130;11.630;2023-06-19T12:00:40;8.63;;;3.05;;
21122;SDS011;10719;48.130;11.630;2023-06-19T12:03:06;7.70;;;2.65;;
21122;SDS011;10719;48.130;11.630;2023-06-19T12:05:32;7.78;;;2.90;;
21122;SDS011;10719;48.130;11.630;2023-06-19T12:07:58;8.68;;;2.80;;
21122;SDS011;10719;48.130;11.630;2023-06-19T12:10:27;5.90;;;2.83;;
21122;SDS011;10719;48.130;11.630;2023-06-19T12:12:52;6.18;;;2.67;;
21122;SDS011;10719;48.130;11.630;2023-06-19T12:15:18;6.30;;;2.60;;
21122;SDS011;10719;48.130;11.630;2023-06-19T12:17:44;6.40;;;2.63;;
21122;SDS011;10719;48.130;11.630;2023-06-19T12:20:11;8.00;;;3.00;;
21122;SDS011;10719;48.130;11.630;2023-06-19T12:22:38;7.22;;;2.70;;
21122;SDS011;10719;48.130;11.630;2023-06-19T12:25:04;5.13;;;2.65;;
21122;SDS011;10719;48.130;11.630;2023-06-19T12:27:30;6.57;;;2.88;;
21122;SDS011;10719;48.130;11.630;2023-06-19T12:29:56;4.78;;;2.42;;
21122;SDS011;10719;48.130;11.630;2023-06-19T12:32:21;5.45;;;2.75;;
21122;SDS011;10719;48.130;11.630;2023-06-19T12:34:47;15.77;;;3.10;;
21122;SDS011;10719;48.130;11.630;2023-06-19T12:37:16;8.13;;;3.60;;
21122;SDS011;10719;48.130;11.630;2023-06-19T12:39:42;4.88;;;2.70;;
21122;SDS011;10719;48.130;11.630;2023-06-19T12:42:09;6.78;;;2.40;;
21122;SDS011;10719;48.130;11.630;2023-06-19T12:44:37;5.07;;;2.50;;
21122;SDS011;10719;48.130;11.630;2023-06-19T12:47:03;3.75;;;2.30;;
21122;SDS011;10719;48.130;11.630;2023-06-19T12:49:30;6.90;;;2.70;;
21122;SDS011;10719;48.130;11.630;2023-06-19T12:51:56;7.25;;;2.72;;
21122;SDS011;10719;48.130;11.630;2023-06-19T12:54:21;7.05;;;2.53;;
21122;SDS011;10719;48.130;11.630;2023-06-19T12:56:48;6.55;;;2.63;;
21122;SDS011;10719;48.130;11.630;2023-06-19T12:59:14;5.65;;;2.75;;
21122;SDS011;10719;48.130;11.630;2023-06-19T13:01:40;6.05;;;2.40;;
21122;SDS011;10719;48.130;11.630;2023-06-19T13:04:06;5.85;;;2.53;;
21122;SDS011;10719;48.130;11.630;2023-06-19T13:06:31;8.20;;;2.67;;
21122;SDS011;10719;48.130;11.630;2023-06-19T13:08:57;4.43;;;2.15;;
21122;SDS011;10719;48.130;11.630;2023-06-19T13:11:23;6.32;;;2.30;;
21122;SDS011;10719;48.130;11.630;2023-06-19T13:13:48;3.53;;;2.22;;
21122;SDS011;10719;48.130;11.630;2023-06-19T13:16:14;5.47;;;2.53;;
21122;SDS011;10719;48.130;11.630;2023-06-19T13:18:41;4.57;;;2.33;;
21122;SDS011;10719;48.130;11.630;2023-06-19T13:21:07;7.57;;;2.30;;
21122;SDS011;10719;48.130;11.630;2023-06-19T13:23:32;4.72;;;2.20;;
21122;SDS011;10719;48.130;11.630;2023-06-19T13:25:58;5.65;;;2.53;;
21122;SDS011;10719;48.130;11.630;2023-06-19T13:28:24;5.65;;;2.35;;
21122;SDS011;10719;48.130;11.630;2023-06-19T13:30:49;8.93;;;2.70;;
21122;SDS011;10719;48.130;11.630;2023-06-19T13:33:15;8.25;;;2.80;;
21122;SDS011;10719;48.130;11.630;2023-06-19T13:35:41;3.50;;;2.15;;
21122;SDS011;10719;48.130;11.630;2023-06-19T13:38:07;4.15;;;2.25;;
21122;SDS011;10719;48.130;11.630;2023-06-19T13:40:34;7.10;;;2.40;;
21122;SDS011;10719;48.130;11.630;2023-06-19T13:43:00;3.45;;;2.13;;
21122;SDS011;10719;48.130;11.630;2023-06-19T13:45:27;5.47;;;1.98;;
21122;SDS011;10719;48.130;11.630;2023-06-19T13:47:53;5.65;;;2.30;;
21122;SDS011;10719;48.130;11.630;2023-06-19T13:50:18;3.53;;;1.90;;
21122;SDS011;10719;48.130;11.630;2023-06-19T13:52:45;8.77;;;2.65;;
21122;SDS011;10719;48.130;11.630;2023-06-19T13:55:11;5.50;;;2.55;;
21122;SDS011;10719;48.130;11.630;2023-06-19T13:57:38;6.47;;;2.88;;
21122;SDS011;10719;48.130;11.630;2023-06-19T14:00:05;4.93;;;2.25;;
21122;SDS011;10719;48.130;11.630;2023-06-19T14:02:32;8.32;;;2.33;;
21122;SDS011;10719;48.130;11.630;2023-06-19T14:04:58;5.65;;;2.50;;
21122;SDS011;10719;48.130;11.630;2023-06-19T14:07:23;5.30;;;2.38;;
21122;SDS011;10719;48.130;11.630;2023-06-19T14:09:49;5.63;;;2.55;;
21122;SDS011;10719;48.130;11.630;2023-06-19T14:12:15;3.63;;;2.13;;
21122;SDS011;10719;48.130;11.630;2023-06-19T14:14:40;9.60;;;2.75;;
21122;SDS011;10719;48.130;11.630;2023-06-19T14:17:06;6.20;;;2.47;;
21122;SDS011;10719;48.130;11.630;2023-06-19T14:19:32;5.45;;;2.60;;
21122;SDS011;10719;48.130;11.630;2023-06-19T14:21:57;6.35;;;2.58;;
21122;SDS011;10719;48.130;11.630;2023-06-19T14:24:23;6.63;;;2.65;;
21122;SDS011;10719;48.130;11.630;2023-06-19T14:26:49;8.00;;;2.28;;
21122;SDS011;10719;48.130;11.630;2023-06-19T14:29:15;6.03;;;2.20;;
21122;SDS011;10719;48.130;11.630;2023-06-19T14:31:43;8.60;;;3.10;;
21122;SDS011;10719;48.130;11.630;2023-06-19T14:34:09;4.90;;;2.38;;
21122;SDS011;10719;48.130;11.630;2023-06-19T14:36:36;5.95;;;2.10;;